createdAt,value
2023-04-15T00:01:45.513Z,10.43
2023-04-15T00:04:13.156Z,10.42
2023-04-15T00:06:41.107Z,10.50
2023-04-15T00:09:08.865Z,10.52
2023-04-15T00:11:36.369Z,10.46
2023-04-15T00:14:03.605Z,10.30
2023-04-15T00:16:30.983Z,10.33
2023-04-15T00:18:58.589Z,10.20
2023-04-15T00:21:27.743Z,10.18
2023-04-15T00:23:55.263Z,10.10
2023-04-15T00:26:22.823Z,10.12
2023-04-15T00:28:50.508Z,10.03
2023-04-15T00:31:18.262Z,10.05
2023-04-15T00:33:47.087Z,9.96
2023-04-15T00:36:14.804Z,9.90
2023-04-15T00:38:42.322Z,9.88
2023-04-15T00:41:11.170Z,9.84
2023-04-15T00:43:38.635Z,10.01
2023-04-15T00:46:07.679Z,10.04
2023-04-15T00:48:36.030Z,9.97
2023-04-15T00:51:03.576Z,10.00
2023-04-15T00:53:31.061Z,10.05
2023-04-15T00:56:01.669Z,9.93
2023-04-15T00:58:29.298Z,9.88
2023-04-15T01:00:57.415Z,9.75
2023-04-15T01:03:25.576Z,9.59
2023-04-15T01:05:58.383Z,9.52
2023-04-15T01:08:32.361Z,9.62
2023-04-15T01:11:03.752Z,9.56
2023-04-15T01:13:33.945Z,9.39
2023-04-15T01:16:03.208Z,9.54
2023-04-15T01:18:31.507Z,9.37
2023-04-15T01:21:03.797Z,9.20
2023-04-15T01:23:32.889Z,9.26
2023-04-15T01:26:00.358Z,9.16
2023-04-15T01:28:28.554Z,9.07
2023-04-15T01:31:13.861Z,9.01
2023-04-15T01:33:43.365Z,8.99
2023-04-15T01:36:11.066Z,8.88
2023-04-15T01:38:39.243Z,8.79
2023-04-15T01:41:08.279Z,8.75
2023-04-15T01:43:37.478Z,8.82
2023-04-15T01:46:05.391Z,8.72
2023-04-15T01:48:33.515Z,8.66
2023-04-15T01:51:00.932Z,8.69
2023-04-15T01:53:28.621Z,8.64
2023-04-15T01:55:56.362Z,8.62
2023-04-15T01:58:23.996Z,8.64
2023-04-15T02:00:51.710Z,8.64
2023-04-15T02:03:19.490Z,8.45
2023-04-15T02:05:47.051Z,8.47
2023-04-15T02:08:14.651Z,8.57
2023-04-15T02:10:42.191Z,8.47
2023-04-15T02:13:11.012Z,8.43
2023-04-15T02:15:38.414Z,8.42
2023-04-15T02:18:05.879Z,8.44
2023-04-15T02:20:33.244Z,8.44
2023-04-15T02:23:01.204Z,8.33
2023-04-15T02:25:28.602Z,8.37
2023-04-15T02:27:57.631Z,8.42
2023-04-15T02:30:26.096Z,8.40
2023-04-15T02:32:53.715Z,8.31
2023-04-15T02:35:21.158Z,8.24
2023-04-15T02:37:48.501Z,8.30
2023-04-15T02:40:15.874Z,8.23
2023-04-15T02:42:44.415Z,8.17
2023-04-15T02:45:14.538Z,8.10
2023-04-15T02:47:43.452Z,8.08
2023-04-15T02:50:13.323Z,8.15
2023-04-15T02:52:43.478Z,8.03
2023-04-15T02:55:11.673Z,8.07
2023-04-15T02:57:40.875Z,8.02
2023-04-15T03:00:11.949Z,8.08
2023-04-15T03:02:43.234Z,8.04
2023-04-15T03:05:15.063Z,8.00
2023-04-15T03:07:52.214Z,8.01
2023-04-15T03:10:20.898Z,7.97
2023-04-15T03:12:48.586Z,7.98
2023-04-15T03:15:21.598Z,7.99
2023-04-15T03:17:52.301Z,8.02
2023-04-15T03:20:20.432Z,7.93
2023-04-15T03:22:49.060Z,7.87
2023-04-15T03:25:17.161Z,7.96
2023-04-15T03:27:44.620Z,7.93
2023-04-15T03:30:13.537Z,7.89
2023-04-15T03:32:41.871Z,7.79
2023-04-15T03:35:09.898Z,7.89
2023-04-15T03:37:37.341Z,7.82
2023-04-15T03:40:05.267Z,7.78
2023-04-15T03:42:32.689Z,7.81
2023-04-15T03:45:00.415Z,7.66
2023-04-15T03:47:27.864Z,7.74
2023-04-15T03:49:55.808Z,7.68
2023-04-15T03:52:23.236Z,7.69
2023-04-15T03:54:50.557Z,7.62
2023-04-15T03:57:17.917Z,7.63
2023-04-15T03:59:45.449Z,7.61
2023-04-15T04:02:12.894Z,7.55
2023-04-15T04:04:40.359Z,7.51
2023-04-15T04:07:07.791Z,7.46
2023-04-15T04:09:35.303Z,7.44
2023-04-15T04:12:02.712Z,7.43
2023-04-15T04:14:30.021Z,7.46
2023-04-15T04:16:57.597Z,7.38
2023-04-15T04:19:25.163Z,7.44
2023-04-15T04:21:52.825Z,7.43
2023-04-15T04:24:20.616Z,7.32
2023-04-15T04:26:48.603Z,7.35
2023-04-15T04:29:16.416Z,7.33
2023-04-15T04:31:44.148Z,7.40
2023-04-15T04:34:11.769Z,7.26
2023-04-15T04:36:39.067Z,7.29
2023-04-15T04:39:06.405Z,7.21
2023-04-15T04:41:33.855Z,7.27
2023-04-15T04:44:01.238Z,7.28
2023-04-15T04:46:28.646Z,7.24
2023-04-15T04:48:56.152Z,7.19
2023-04-15T04:51:23.588Z,7.17
2023-04-15T04:53:51.025Z,7.24
2023-04-15T04:56:18.356Z,7.15
2023-04-15T04:58:46.020Z,7.16
2023-04-15T05:01:13.745Z,7.17
2023-04-15T05:03:41.933Z,7.19
2023-04-15T05:06:09.616Z,7.11
2023-04-15T05:08:39.124Z,7.11
2023-04-15T05:11:07.737Z,7.22
2023-04-15T05:13:38.716Z,7.19
2023-04-15T05:18:34.504Z,7.33
2023-04-15T05:21:02.840Z,7.35
2023-04-15T05:23:30.343Z,7.44
2023-04-15T05:25:57.869Z,7.46
2023-04-15T05:28:25.226Z,7.51
2023-04-15T05:30:52.639Z,7.54
2023-04-15T05:33:20.175Z,7.71
2023-04-15T05:35:47.609Z,7.82
2023-04-15T05:38:14.941Z,7.86
2023-04-15T05:40:42.598Z,7.98
2023-04-15T05:43:10.220Z,8.01
2023-04-15T05:45:37.800Z,8.15
2023-04-15T05:48:05.416Z,8.27
2023-04-15T05:50:33.080Z,8.41
2023-04-15T05:53:00.836Z,8.56
2023-04-15T05:55:28.281Z,8.76
2023-04-15T05:57:55.866Z,9.26
2023-04-15T06:00:23.154Z,10.35
2023-04-15T06:02:50.781Z,11.50
2023-04-15T06:05:18.432Z,12.66
2023-04-15T06:07:48.337Z,13.79
2023-04-15T06:10:16.184Z,14.73
2023-04-15T06:12:43.653Z,15.66
2023-04-15T06:15:11.439Z,16.46
2023-04-15T06:17:38.881Z,17.24
2023-04-15T06:20:08.632Z,17.96
2023-04-15T06:22:38.140Z,18.70
2023-04-15T06:25:08.243Z,19.36
2023-04-15T06:27:35.717Z,20.13
2023-04-15T06:30:04.435Z,20.71
2023-04-15T06:32:32.722Z,21.15
2023-04-15T06:35:00.385Z,21.74
2023-04-15T06:37:27.918Z,22.31
2023-04-15T06:39:55.404Z,22.72
2023-04-15T06:42:23.228Z,23.32
2023-04-15T06:44:51.499Z,23.64
2023-04-15T06:47:19.862Z,23.55
2023-04-15T06:49:47.375Z,23.51
2023-04-15T06:52:16.649Z,23.55
2023-04-15T06:54:44.150Z,23.59
2023-04-15T06:57:11.625Z,23.69
2023-04-15T06:59:39.203Z,23.59
2023-04-15T07:02:09.141Z,23.52
2023-04-15T07:04:36.991Z,23.52
2023-04-15T07:07:04.717Z,23.46
2023-04-15T07:09:32.611Z,23.55
2023-04-15T07:12:00.149Z,23.70
2023-04-15T07:14:28.004Z,23.86
2023-04-15T07:16:55.971Z,24.02
2023-04-15T07:19:23.639Z,24.11
2023-04-15T07:21:51.706Z,24.27
2023-04-15T07:24:20.707Z,24.22
2023-04-15T07:26:48.256Z,24.17
2023-04-15T07:29:15.967Z,24.37
2023-04-15T07:31:46.558Z,24.46
2023-04-15T07:34:16.507Z,24.64
2023-04-15T07:36:44.765Z,24.64
2023-04-15T07:39:12.323Z,24.57
2023-04-15T07:41:39.816Z,24.59
2023-04-15T07:44:07.276Z,24.72
2023-04-15T07:46:34.819Z,24.72
2023-04-15T07:49:02.500Z,24.66
2023-04-15T07:51:30.826Z,24.64
2023-04-15T07:53:58.850Z,24.28
2023-04-15T07:56:26.691Z,23.91
2023-04-15T07:58:54.144Z,23.63
2023-04-15T08:01:21.756Z,23.44
2023-04-15T08:03:53.080Z,23.46
2023-04-15T08:06:20.963Z,23.12
2023-04-15T08:08:48.472Z,22.60
2023-04-15T08:11:16.626Z,22.51
2023-04-15T08:13:44.171Z,22.16
2023-04-15T08:16:18.979Z,22.24
2023-04-15T08:18:48.763Z,22.56
2023-04-15T08:21:24.386Z,22.64
2023-04-15T08:23:54.695Z,22.84
2023-04-15T08:26:22.971Z,23.11
2023-04-15T08:28:50.511Z,23.23
2023-04-15T08:31:21.989Z,23.40
2023-04-15T08:33:52.152Z,23.70
2023-04-15T08:36:20.112Z,23.61
2023-04-15T08:38:47.702Z,23.64
2023-04-15T08:41:23.731Z,23.88
2023-04-15T08:44:00.250Z,24.05
2023-04-15T08:46:28.214Z,23.56
2023-04-15T08:48:59.326Z,23.22
2023-04-15T08:51:27.815Z,22.76
2023-04-15T08:53:55.375Z,22.21
2023-04-15T08:56:28.805Z,22.05
2023-04-15T08:58:57.075Z,22.01
2023-04-15T09:01:25.674Z,21.99
2023-04-15T09:03:54.988Z,21.50
2023-04-15T09:06:23.490Z,20.94
2023-04-15T09:08:52.103Z,20.12
2023-04-15T09:11:20.288Z,20.22
2023-04-15T09:13:48.396Z,20.61
2023-04-15T09:16:15.788Z,20.86
2023-04-15T09:18:43.387Z,20.98
2023-04-15T09:21:14.184Z,21.04
2023-04-15T09:23:56.947Z,20.93
2023-04-15T09:26:38.048Z,20.54
2023-04-15T09:29:07.708Z,19.97
2023-04-15T09:31:39.320Z,19.16
2023-04-15T09:34:07.507Z,18.30
2023-04-15T09:37:00.994Z,18.58
2023-04-15T09:39:28.864Z,18.72
2023-04-15T09:42:07.397Z,18.76
2023-04-15T09:44:34.894Z,18.97
2023-04-15T09:47:02.417Z,19.58
2023-04-15T09:49:29.994Z,20.06
2023-04-15T09:52:05.102Z,20.33
2023-04-15T09:54:38.143Z,20.42
2023-04-15T09:57:10.231Z,20.81
2023-04-15T09:59:38.108Z,20.80
2023-04-15T10:02:09.510Z,20.86
2023-04-15T10:04:41.734Z,20.47
2023-04-15T10:07:10.142Z,20.39
2023-04-15T10:09:38.745Z,20.44
2023-04-15T10:12:06.343Z,19.92
2023-04-15T10:14:38.848Z,19.97
2023-04-15T10:17:11.647Z,19.85
2023-04-15T10:19:39.289Z,19.70
2023-04-15T10:22:07.979Z,19.85
2023-04-15T10:24:35.732Z,19.94
2023-04-15T10:27:07.542Z,19.78
2023-04-15T10:29:35.205Z,19.65
2023-04-15T10:32:03.822Z,19.46
2023-04-15T10:34:32.334Z,19.04
2023-04-15T10:37:03.890Z,18.65
2023-04-15T10:39:34.597Z,18.72
2023-04-15T10:42:16.940Z,18.76
2023-04-15T10:44:49.978Z,19.01
2023-04-15T10:47:19.674Z,19.36
2023-04-15T10:49:52.538Z,19.32
2023-04-15T10:52:26.296Z,18.94
2023-04-15T10:55:19.001Z,18.49
2023-04-15T10:57:46.712Z,18.22
2023-04-15T11:00:16.585Z,18.01
2023-04-15T11:02:48.454Z,17.92
2023-04-15T11:05:17.985Z,18.04
2023-04-15T11:07:51.151Z,18.43
2023-04-15T11:10:18.728Z,18.80
2023-04-15T11:12:46.693Z,18.78
2023-04-15T11:15:33.279Z,18.48
2023-04-15T11:18:01.527Z,18.32
2023-04-15T11:20:29.875Z,18.47
2023-04-15T11:23:14.551Z,18.68
2023-04-15T11:25:43.818Z,18.88
2023-04-15T11:28:12.591Z,18.68
2023-04-15T11:30:42.304Z,18.70
2023-04-15T11:33:12.350Z,18.34
2023-04-15T11:35:42.077Z,18.44
2023-04-15T11:38:16.845Z,18.51
2023-04-15T11:40:46.980Z,18.72
2023-04-15T11:43:23.308Z,18.77
2023-04-15T11:45:59.298Z,19.00
2023-04-15T11:48:32.245Z,19.08
2023-04-15T11:51:05.107Z,18.88
2023-04-15T11:53:52.281Z,18.76
2023-04-15T11:56:24.632Z,18.84
2023-04-15T11:58:59.789Z,18.94
2023-04-15T12:01:39.958Z,18.85
2023-04-15T12:04:15.329Z,18.82
2023-04-15T12:06:43.522Z,18.49
2023-04-15T12:09:13.252Z,18.46
2023-04-15T12:11:53.071Z,18.60
2023-04-15T12:14:32.243Z,18.39
2023-04-15T12:17:05.020Z,18.36
2023-04-15T12:19:37.725Z,18.42
2023-04-15T12:22:08.848Z,18.55
2023-04-15T12:24:38.142Z,18.40
2023-04-15T12:27:07.853Z,18.32
2023-04-15T12:29:37.051Z,18.24
2023-04-15T12:32:08.144Z,18.34
2023-04-15T12:34:43.474Z,18.61
2023-04-15T12:37:13.362Z,18.62
2023-04-15T12:39:43.700Z,18.61
2023-04-15T12:42:11.977Z,18.73
2023-04-15T12:44:40.202Z,18.57
2023-04-15T12:47:10.064Z,18.60
2023-04-15T12:49:37.853Z,18.55
2023-04-15T12:52:06.020Z,18.52
2023-04-15T12:54:34.684Z,18.64
2023-04-15T12:57:05.957Z,18.80
2023-04-15T12:59:34.330Z,18.94
2023-04-15T13:02:03.113Z,18.79
2023-04-15T13:04:31.686Z,18.61
2023-04-15T13:06:59.420Z,18.14
2023-04-15T13:09:27.177Z,17.83
2023-04-15T13:11:54.800Z,17.62
2023-04-15T13:14:22.396Z,17.36
2023-04-15T13:16:49.855Z,17.36
2023-04-15T13:19:17.571Z,17.34
2023-04-15T13:21:45.061Z,17.18
2023-04-15T13:24:12.532Z,17.12
2023-04-15T13:26:39.977Z,17.31
2023-04-15T13:29:07.532Z,17.48
2023-04-15T13:31:35.055Z,17.67
2023-04-15T13:36:30.715Z,16.68
2023-04-15T13:38:58.547Z,16.54
2023-04-15T13:41:26.040Z,16.71
2023-04-15T13:43:53.480Z,16.73
2023-04-15T13:46:21.101Z,16.67
2023-04-15T13:48:48.948Z,16.62
2023-04-15T13:51:16.388Z,16.69
2023-04-15T13:53:43.867Z,16.75
2023-04-15T13:56:11.369Z,16.69
2023-04-15T13:58:41.605Z,16.70
2023-04-15T14:01:09.246Z,16.64
2023-04-15T14:03:37.199Z,16.57
2023-04-15T14:06:08.207Z,16.51
2023-04-15T14:08:35.800Z,16.56
2023-04-15T14:11:03.260Z,16.47
2023-04-15T14:13:31.342Z,16.41
2023-04-15T14:15:58.952Z,16.23
2023-04-15T14:18:26.493Z,16.20
2023-04-15T14:20:54.144Z,16.15
2023-04-15T14:23:21.839Z,16.11
2023-04-15T14:25:51.189Z,16.26
2023-04-15T14:28:18.730Z,16.30
2023-04-15T14:30:46.567Z,16.36
2023-04-15T14:33:14.163Z,16.32
2023-04-15T14:35:41.714Z,16.34
2023-04-15T14:38:11.542Z,16.36
2023-04-15T14:40:39.209Z,16.29
2023-04-15T14:43:06.738Z,16.21
2023-04-15T14:45:34.785Z,16.15
2023-04-15T14:48:02.570Z,16.15
2023-04-15T14:50:30.151Z,16.16
2023-04-15T14:52:58.880Z,16.13
2023-04-15T14:55:26.290Z,16.16
2023-04-15T14:57:53.798Z,16.27
2023-04-15T15:00:21.217Z,16.26
2023-04-15T15:02:49.062Z,16.24
2023-04-15T15:05:16.700Z,16.20
2023-04-15T15:07:44.288Z,16.08
2023-04-15T15:10:11.766Z,15.99
2023-04-15T15:12:39.193Z,15.91
2023-04-15T15:15:19.439Z,15.93
2023-04-15T15:17:54.705Z,15.82
2023-04-15T15:20:23.121Z,15.81
2023-04-15T15:22:51.100Z,15.79
2023-04-15T15:25:18.753Z,15.95
2023-04-15T15:27:46.871Z,15.80
2023-04-15T15:30:14.440Z,15.71
2023-04-15T15:32:42.974Z,15.63
2023-04-15T15:35:10.978Z,15.49
2023-04-15T15:37:38.788Z,15.46
2023-04-15T15:40:07.242Z,15.46
2023-04-15T15:42:35.067Z,15.46
2023-04-15T15:45:04.176Z,15.45
2023-04-15T15:47:32.190Z,15.49
2023-04-15T15:50:01.058Z,15.53
2023-04-15T15:52:28.766Z,15.54
2023-04-15T15:54:56.205Z,15.47
2023-04-15T15:57:23.757Z,15.41
2023-04-15T16:00:04.678Z,15.42
2023-04-15T16:03:04.430Z,15.39
2023-04-15T16:05:25.351Z,15.28
2023-04-15T16:07:52.885Z,15.20
2023-04-15T16:10:20.476Z,15.06
2023-04-15T16:12:47.991Z,15.08
2023-04-15T16:15:15.597Z,14.97
2023-04-15T16:17:43.105Z,14.87
2023-04-15T16:20:10.972Z,14.91
2023-04-15T16:22:39.201Z,14.90
2023-04-15T16:25:07.254Z,14.86
2023-04-15T16:27:40.828Z,14.76
2023-04-15T16:30:17.750Z,14.71
2023-04-15T16:32:45.169Z,14.73
2023-04-15T16:35:14.570Z,14.64
2023-04-15T16:37:42.026Z,14.59
2023-04-15T16:40:10.110Z,14.31
2023-04-15T16:42:37.525Z,14.38
2023-04-15T16:45:05.565Z,14.43
2023-04-15T16:47:33.080Z,14.34
2023-04-15T16:50:00.596Z,14.33
2023-04-15T16:52:29.033Z,14.18
2023-04-15T16:54:56.443Z,14.28
2023-04-15T16:57:23.683Z,14.36
2023-04-15T16:59:53.202Z,14.33
2023-04-15T17:02:20.869Z,14.38
2023-04-15T17:04:48.548Z,14.30
2023-04-15T17:07:16.224Z,14.21
2023-04-15T17:09:43.621Z,14.24
2023-04-15T17:12:11.026Z,14.19
2023-04-15T17:14:39.084Z,14.13
2023-04-15T17:17:06.680Z,14.13
2023-04-15T17:19:34.430Z,14.03
2023-04-15T17:22:02.414Z,13.94
2023-04-15T17:24:31.097Z,13.83
2023-04-15T17:26:58.558Z,13.82
2023-04-15T17:29:26.009Z,13.78
2023-04-15T17:31:54.906Z,13.72
2023-04-15T17:34:22.536Z,13.68
2023-04-15T17:36:51.454Z,13.70
2023-04-15T17:39:18.975Z,13.59
2023-04-15T17:41:46.774Z,13.57
2023-04-15T17:44:14.248Z,13.54
2023-04-15T17:46:41.843Z,13.52
2023-04-15T17:49:09.558Z,13.56
2023-04-15T17:51:37.048Z,13.50
2023-04-15T17:54:08.000Z,13.48
2023-04-15T17:56:35.548Z,13.27
2023-04-15T17:59:03.592Z,13.37
2023-04-15T18:01:31.256Z,13.41
2023-04-15T18:03:58.929Z,13.43
2023-04-15T18:06:27.350Z,13.34
2023-04-15T18:08:54.858Z,13.27
2023-04-15T18:11:22.364Z,13.13
2023-04-15T18:13:49.862Z,12.99
2023-04-15T18:16:17.627Z,12.85
2023-04-15T18:18:45.243Z,12.87
2023-04-15T18:21:13.885Z,12.91
2023-04-15T18:23:41.516Z,13.07
2023-04-15T18:26:09.109Z,13.09
2023-04-15T18:28:37.978Z,13.01
2023-04-15T18:31:06.607Z,12.66
2023-04-15T18:33:35.773Z,12.49
2023-04-15T18:36:03.288Z,12.52
2023-04-15T18:38:30.640Z,12.42
2023-04-15T18:40:58.809Z,12.35
2023-04-15T18:43:26.277Z,12.45
2023-04-15T18:45:55.032Z,12.47
2023-04-15T18:48:22.813Z,12.55
2023-04-15T18:50:54.035Z,12.48
2023-04-15T18:53:21.777Z,12.35
2023-04-15T18:55:49.221Z,12.12
2023-04-15T18:58:16.886Z,12.23
2023-04-15T19:00:44.588Z,11.98
2023-04-15T19:03:12.141Z,12.00
2023-04-15T19:05:40.164Z,11.94
2023-04-15T19:08:07.633Z,11.89
2023-04-15T19:10:35.518Z,11.69
2023-04-15T19:13:04.410Z,11.51
2023-04-15T19:15:32.081Z,11.51
2023-04-15T19:17:59.708Z,11.45
2023-04-15T19:20:27.364Z,11.48
2023-04-15T19:22:55.087Z,11.41
2023-04-15T19:25:22.529Z,11.47
2023-04-15T19:27:50.072Z,11.45
2023-04-15T19:30:17.593Z,11.46
2023-04-15T19:32:45.190Z,11.52
2023-04-15T19:35:12.792Z,11.55
2023-04-15T19:37:40.594Z,11.40
2023-04-15T19:40:09.469Z,11.47
2023-04-15T19:42:36.954Z,11.32
2023-04-15T19:45:04.427Z,11.21
2023-04-15T19:47:33.598Z,11.13
2023-04-15T19:50:01.122Z,11.01
2023-04-15T19:52:28.646Z,11.12
2023-04-15T19:54:56.089Z,11.22
2023-04-15T19:57:23.749Z,11.04
2023-04-15T19:59:51.379Z,10.95
2023-04-15T20:02:19.052Z,10.97
2023-04-15T20:04:46.844Z,10.92
2023-04-15T20:07:14.366Z,10.77
2023-04-15T20:09:43.895Z,10.63
2023-04-15T20:12:50.179Z,10.58
2023-04-15T20:14:58.683Z,10.54
2023-04-15T20:17:26.060Z,10.54
2023-04-15T20:19:53.405Z,10.57
2023-04-15T20:22:20.801Z,10.64
2023-04-15T20:24:48.193Z,10.62
2023-04-15T20:27:16.288Z,10.52
2023-04-15T20:29:43.704Z,10.54
2023-04-15T20:32:11.687Z,10.52
2023-04-15T20:34:40.641Z,10.52
2023-04-15T20:37:08.067Z,10.50
2023-04-15T20:39:35.691Z,10.64
2023-04-15T20:42:03.537Z,10.70
2023-04-15T20:44:31.133Z,10.73
2023-04-15T20:46:58.579Z,10.63
2023-04-15T20:49:26.036Z,10.51
2023-04-15T20:51:53.309Z,10.46
2023-04-15T20:54:20.929Z,10.62
2023-04-15T20:56:48.399Z,10.66
2023-04-15T20:59:16.079Z,10.67
2023-04-15T21:01:43.564Z,10.52
2023-04-15T21:04:11.363Z,10.43
2023-04-15T21:06:38.820Z,10.32
2023-04-15T21:09:06.668Z,10.32
2023-04-15T21:11:53.164Z,10.37
2023-04-15T21:14:21.877Z,10.43
2023-04-15T21:16:49.386Z,10.58
2023-04-15T21:19:16.954Z,10.56
2023-04-15T21:21:44.428Z,10.46
2023-04-15T21:24:11.911Z,10.46
2023-04-15T21:26:39.344Z,10.37
2023-04-15T21:29:09.506Z,10.26
2023-04-15T21:31:38.920Z,10.25
2023-04-15T21:34:08.052Z,10.19
2023-04-15T21:36:35.922Z,10.22
2023-04-15T21:39:04.883Z,10.20
2023-04-15T21:41:32.898Z,10.16
2023-04-15T21:44:00.479Z,10.20
2023-04-15T21:46:34.994Z,10.13
2023-04-15T21:49:03.689Z,10.14
2023-04-15T21:51:31.597Z,10.09
2023-04-15T21:53:59.779Z,10.04
2023-04-15T21:56:27.460Z,10.09
2023-04-15T21:58:57.222Z,9.98
2023-04-15T22:01:26.754Z,10.06
2023-04-15T22:03:54.445Z,9.94
2023-04-15T22:06:21.993Z,9.87
2023-04-15T22:08:56.895Z,9.82
2023-04-15T22:11:30.464Z,9.77
2023-04-15T22:13:58.994Z,9.70
2023-04-15T22:16:27.241Z,9.74
2023-04-15T22:18:55.623Z,9.82
2023-04-15T22:21:23.537Z,9.80
2023-04-15T22:23:51.733Z,9.80
2023-04-15T22:26:19.320Z,9.82
2023-04-15T22:28:46.793Z,9.79
2023-04-15T22:31:15.034Z,10.05
2023-04-15T22:33:42.654Z,9.88
2023-04-15T22:36:10.177Z,9.75
2023-04-15T22:38:37.775Z,9.66
2023-04-15T22:41:05.301Z,9.63
2023-04-15T22:43:32.827Z,9.56
2023-04-15T22:46:01.043Z,9.58
2023-04-15T22:48:28.719Z,9.55
2023-04-15T22:50:56.265Z,9.49
2023-04-15T22:53:23.705Z,9.35
2023-04-15T22:55:51.817Z,9.31
2023-04-15T22:58:19.084Z,9.26
2023-04-15T23:00:46.354Z,9.19
2023-04-15T23:03:13.898Z,9.08
2023-04-15T23:05:42.402Z,9.05
2023-04-15T23:08:10.112Z,9.02
2023-04-15T23:10:40.083Z,9.13
2023-04-15T23:13:07.527Z,9.04
2023-04-15T23:15:34.778Z,8.98
2023-04-15T23:18:02.592Z,8.96
2023-04-15T23:20:30.109Z,8.93
2023-04-15T23:22:57.604Z,8.84
2023-04-15T23:25:25.122Z,8.86
2023-04-15T23:27:52.657Z,8.81
2023-04-15T23:30:19.939Z,8.72
2023-04-15T23:32:47.311Z,8.74
2023-04-15T23:35:14.778Z,8.74
2023-04-15T23:37:42.360Z,8.70
2023-04-15T23:40:10.521Z,8.71
2023-04-15T23:42:38.083Z,8.73
2023-04-15T23:45:06.020Z,8.70
2023-04-15T23:47:33.578Z,8.69
2023-04-15T23:50:01.300Z,8.73
2023-04-15T23:52:28.774Z,8.74
2023-04-15T23:54:56.065Z,8.74
2023-04-15T23:57:23.394Z,8.76
2023-04-15T23:59:50.649Z,8.86
